createdAt,value
2018-04-30T00:01:07.184Z,17.00
2018-04-30T00:03:34.312Z,17.00
2018-04-30T00:06:00.716Z,17.00
2018-04-30T00:08:27.457Z,16.90
2018-04-30T00:10:53.910Z,16.90
2018-04-30T00:13:21.052Z,14.90
2018-04-30T00:15:47.581Z,16.70
2018-04-30T00:18:15.088Z,16.70
2018-04-30T00:20:42.195Z,16.60
2018-04-30T00:23:08.660Z,16.60
2018-04-30T00:25:35.036Z,16.60
2018-04-30T00:28:01.421Z,16.50
2018-04-30T00:30:27.809Z,16.50
2018-04-30T00:32:54.179Z,16.60
2018-04-30T00:35:20.647Z,16.60
2018-04-30T00:37:47.767Z,16.50
2018-04-30T00:40:16.023Z,16.50
2018-04-30T00:42:42.398Z,16.50
2018-04-30T00:45:09.515Z,16.50
2018-04-30T00:47:35.905Z,16.40
2018-04-30T00:50:02.328Z,17.90
2018-04-30T00:52:28.752Z,16.30
2018-04-30T00:55:01.014Z,16.30
2018-04-30T00:57:28.212Z,16.20
2018-04-30T00:59:54.594Z,16.20
2018-04-30T01:02:21.686Z,16.30
2018-04-30T01:04:48.434Z,16.30
2018-04-30T01:07:14.815Z,16.20
2018-04-30T01:09:42.044Z,16.30
2018-04-30T01:12:08.489Z,16.30
2018-04-30T01:14:37.035Z,16.10
2018-04-30T01:17:03.432Z,16.10
2018-04-30T01:19:29.815Z,16.10
2018-04-30T01:21:56.284Z,15.70
2018-04-30T01:24:23.426Z,16.00
2018-04-30T01:26:50.584Z,16.00
2018-04-30T01:29:17.688Z,16.00
2018-04-30T01:31:44.154Z,15.80
2018-04-30T01:34:11.326Z,16.10
2018-04-30T01:36:39.952Z,16.10
2018-04-30T01:39:07.225Z,16.10
2018-04-30T01:41:34.010Z,16.00
2018-04-30T01:44:00.444Z,15.90
2018-04-30T01:46:26.814Z,16.00
2018-04-30T01:48:53.609Z,15.80
2018-04-30T01:51:20.049Z,15.60
2018-04-30T01:53:46.413Z,15.70
2018-04-30T01:56:12.814Z,15.40
2018-04-30T01:58:39.192Z,15.70
2018-04-30T02:01:05.545Z,15.70
2018-04-30T02:03:32.698Z,15.60
2018-04-30T02:06:00.186Z,15.50
2018-04-30T02:08:26.556Z,15.40
2018-04-30T02:10:53.185Z,15.40
2018-04-30T02:13:19.589Z,14.20
2018-04-30T02:15:45.956Z,15.20
2018-04-30T02:18:13.150Z,15.00
2018-04-30T02:20:40.263Z,14.90
2018-04-30T02:23:07.406Z,15.00
2018-04-30T02:25:33.808Z,14.80
2018-04-30T02:28:00.165Z,14.90
2018-04-30T02:30:26.532Z,14.80
2018-04-30T02:32:54.111Z,14.60
2018-04-30T02:35:21.243Z,14.60
2018-04-30T02:37:48.353Z,14.50
2018-04-30T02:40:14.784Z,14.50
2018-04-30T02:42:41.258Z,14.60
2018-04-30T02:45:07.657Z,14.50
2018-04-30T02:47:34.803Z,14.50
2018-04-30T02:50:01.167Z,14.50
2018-04-30T02:52:27.568Z,14.40
2018-04-30T02:54:54.088Z,14.40
2018-04-30T02:57:20.486Z,14.30
2018-04-30T02:59:46.949Z,14.10
2018-04-30T03:02:13.349Z,14.00
2018-04-30T03:04:40.445Z,14.00
2018-04-30T03:07:06.952Z,13.90
2018-04-30T03:09:33.414Z,13.80
2018-04-30T03:11:59.833Z,13.80
2018-04-30T03:14:26.177Z,13.80
2018-04-30T03:16:52.621Z,13.80
2018-04-30T03:19:18.991Z,13.80
2018-04-30T03:21:46.095Z,13.80
2018-04-30T03:24:12.549Z,13.70
2018-04-30T03:26:38.966Z,13.70
2018-04-30T03:29:05.372Z,13.80
2018-04-30T03:31:32.305Z,13.70
2018-04-30T03:33:58.991Z,13.30
2018-04-30T03:36:25.380Z,13.60
2018-04-30T03:38:51.759Z,13.50
2018-04-30T03:41:18.198Z,13.50
2018-04-30T03:43:44.875Z,12.60
2018-04-30T03:46:11.250Z,13.20
2018-04-30T03:48:37.649Z,13.00
2018-04-30T03:51:04.062Z,13.10
2018-04-30T03:53:31.173Z,12.70
2018-04-30T03:55:57.574Z,12.60
2018-04-30T03:58:23.966Z,12.50
2018-04-30T04:01:09.633Z,12.30
2018-04-30T04:03:55.043Z,12.30
2018-04-30T04:06:39.842Z,12.20
2018-04-30T04:09:06.232Z,12.10
2018-04-30T04:11:33.348Z,12.00
2018-04-30T04:13:59.787Z,12.00
2018-04-30T04:16:26.271Z,11.80
2018-04-30T04:18:52.639Z,11.90
2018-04-30T04:21:19.072Z,11.90
2018-04-30T04:23:45.416Z,11.90
2018-04-30T04:26:11.911Z,12.00
2018-04-30T04:28:38.298Z,12.00
2018-04-30T04:31:05.741Z,11.90
2018-04-30T04:33:32.236Z,11.80
2018-04-30T04:35:58.844Z,11.90
2018-04-30T04:38:25.682Z,12.00
2018-04-30T04:40:52.893Z,12.00
2018-04-30T04:43:19.347Z,11.90
2018-04-30T04:45:47.135Z,12.10
2018-04-30T04:48:13.695Z,12.10
2018-04-30T04:50:40.174Z,12.10
2018-04-30T04:53:07.328Z,12.20
2018-04-30T04:55:34.539Z,12.20
2018-04-30T04:58:00.944Z,12.20
2018-04-30T05:00:27.435Z,12.20
2018-04-30T05:02:55.373Z,12.30
2018-04-30T05:05:21.756Z,12.10
2018-04-30T05:07:48.898Z,12.30
2018-04-30T05:10:16.129Z,12.20
2018-04-30T05:12:42.509Z,12.20
2018-04-30T05:15:08.921Z,12.00
2018-04-30T05:17:36.294Z,12.30
2018-04-30T05:20:02.745Z,12.30
2018-04-30T05:22:29.463Z,12.30
2018-04-30T05:24:55.845Z,12.40
2018-04-30T05:27:23.041Z,12.40
2018-04-30T05:29:50.221Z,12.40
2018-04-30T05:32:16.579Z,12.30
2018-04-30T05:34:42.983Z,12.10
2018-04-30T05:37:09.391Z,12.70
2018-04-30T05:39:36.523Z,12.90
2018-04-30T05:42:03.727Z,12.90
2018-04-30T05:44:30.112Z,12.90
2018-04-30T05:46:57.309Z,12.80
2018-04-30T05:49:23.671Z,12.80
2018-04-30T05:51:50.091Z,12.80
2018-04-30T05:54:16.770Z,12.80
2018-04-30T05:56:43.936Z,13.10
2018-04-30T05:59:10.352Z,13.10
2018-04-30T06:01:37.577Z,13.20
2018-04-30T06:04:05.434Z,13.20
2018-04-30T06:06:31.850Z,13.20
2018-04-30T06:08:58.232Z,13.20
2018-04-30T06:11:25.349Z,13.20
2018-04-30T06:13:52.026Z,13.20
2018-04-30T06:16:19.273Z,13.20
2018-04-30T06:18:46.447Z,13.10
2018-04-30T06:21:12.983Z,13.10
2018-04-30T06:23:39.409Z,13.10
2018-04-30T06:26:05.815Z,13.20
2018-04-30T06:28:33.079Z,13.30
2018-04-30T06:31:00.208Z,13.30
2018-04-30T06:33:27.360Z,13.40
2018-04-30T06:35:54.581Z,13.60
2018-04-30T06:38:21.006Z,13.60
2018-04-30T06:40:47.433Z,13.60
2018-04-30T06:43:13.819Z,13.70
2018-04-30T06:45:41.024Z,14.00
2018-04-30T06:48:07.719Z,13.90
2018-04-30T06:50:34.226Z,14.00
2018-04-30T06:53:00.670Z,13.60
2018-04-30T06:55:27.838Z,13.30
2018-04-30T06:57:55.043Z,13.30
2018-04-30T07:00:21.500Z,13.30
2018-04-30T07:02:48.654Z,13.50
2018-04-30T07:05:16.069Z,13.60
2018-04-30T07:07:42.540Z,13.60
2018-04-30T07:10:09.242Z,13.80
2018-04-30T07:12:35.619Z,14.10
2018-04-30T07:15:02.832Z,14.10
2018-04-30T07:17:29.212Z,14.10
2018-04-30T07:19:56.382Z,14.10
2018-04-30T07:22:22.886Z,14.10
2018-04-30T07:24:50.053Z,14.30
2018-04-30T07:27:16.490Z,13.30
2018-04-30T07:29:42.892Z,14.20
2018-04-30T07:32:10.042Z,14.30
2018-04-30T07:34:36.490Z,14.20
2018-04-30T07:37:02.906Z,14.30
2018-04-30T07:39:29.328Z,14.30
2018-04-30T07:41:55.724Z,14.30
2018-04-30T07:44:22.202Z,14.30
2018-04-30T07:46:48.653Z,14.10
2018-04-30T07:49:15.913Z,14.30
2018-04-30T07:51:43.373Z,14.40
2018-04-30T07:54:10.474Z,14.50
2018-04-30T07:56:36.871Z,14.50
2018-04-30T07:59:03.310Z,14.60
2018-04-30T08:01:29.708Z,14.80
2018-04-30T08:03:56.941Z,14.90
2018-04-30T08:06:23.356Z,14.80
2018-04-30T08:08:49.778Z,15.20
2018-04-30T08:11:16.328Z,15.00
2018-04-30T08:13:42.753Z,15.20
2018-04-30T08:16:09.213Z,15.20
2018-04-30T08:18:36.376Z,15.00
2018-04-30T08:21:03.550Z,15.10
2018-04-30T08:23:29.956Z,15.10
2018-04-30T08:25:57.107Z,15.30
2018-04-30T08:28:24.408Z,15.30
2018-04-30T08:30:50.868Z,15.30
2018-04-30T08:33:17.233Z,15.20
2018-04-30T08:35:44.434Z,15.70
2018-04-30T08:38:10.866Z,13.70
2018-04-30T08:40:37.304Z,15.70
2018-04-30T08:43:03.814Z,15.90
2018-04-30T08:45:30.252Z,16.10
2018-04-30T08:47:56.712Z,16.30
2018-04-30T08:50:23.128Z,16.50
2018-04-30T08:52:49.779Z,16.50
2018-04-30T08:55:16.312Z,16.70
2018-04-30T08:57:44.432Z,16.70
2018-04-30T09:00:10.890Z,16.70
2018-04-30T09:02:37.316Z,16.60
2018-04-30T09:05:04.999Z,16.70
2018-04-30T09:07:31.703Z,16.70
2018-04-30T09:09:59.450Z,16.80
2018-04-30T09:12:26.788Z,16.80
2018-04-30T09:14:53.300Z,16.70
2018-04-30T09:17:20.488Z,16.70
2018-04-30T09:19:47.639Z,16.80
2018-04-30T09:22:14.787Z,16.90
2018-04-30T09:24:42.013Z,17.20
2018-04-30T09:27:08.466Z,17.20
2018-04-30T09:29:34.873Z,17.10
2018-04-30T09:32:01.557Z,17.20
2018-04-30T09:34:29.056Z,17.30
2018-04-30T09:36:55.691Z,16.90
2018-04-30T09:39:22.086Z,17.30
2018-04-30T09:41:48.739Z,17.30
2018-04-30T09:44:15.128Z,17.30
2018-04-30T09:46:41.525Z,17.20
2018-04-30T09:49:08.001Z,17.10
2018-04-30T09:51:34.411Z,17.10
2018-04-30T09:54:00.819Z,17.40
2018-04-30T09:56:27.413Z,17.70
2018-04-30T09:58:54.572Z,18.00
2018-04-30T10:01:21.033Z,18.00
2018-04-30T10:03:47.519Z,18.00
2018-04-30T10:06:14.668Z,17.60
2018-04-30T10:08:41.864Z,17.80
2018-04-30T10:11:08.513Z,17.70
2018-04-30T10:13:35.213Z,18.10
2018-04-30T10:16:01.670Z,18.40
2018-04-30T10:18:28.117Z,18.40
2018-04-30T10:20:54.649Z,18.10
2018-04-30T10:23:23.909Z,18.20
2018-04-30T10:25:51.165Z,18.20
2018-04-30T10:28:19.294Z,18.40
2018-04-30T10:30:45.769Z,18.40
2018-04-30T10:33:12.223Z,18.50
2018-04-30T10:35:38.671Z,18.20
2018-04-30T10:38:05.106Z,18.40
2018-04-30T10:40:31.584Z,18.50
2018-04-30T10:42:57.947Z,18.40
2018-04-30T10:45:24.781Z,18.80
2018-04-30T10:47:52.027Z,18.80
2018-04-30T10:50:19.252Z,18.90
2018-04-30T10:52:46.429Z,19.10
2018-04-30T10:55:13.690Z,19.30
2018-04-30T10:57:41.903Z,19.50
2018-04-30T11:00:08.290Z,19.50
2018-04-30T11:02:35.516Z,19.50
2018-04-30T11:05:01.949Z,19.50
2018-04-30T11:07:28.327Z,19.60
2018-04-30T11:09:54.817Z,19.60
2018-04-30T11:12:21.251Z,19.50
2018-04-30T11:14:47.921Z,19.40
2018-04-30T11:17:14.308Z,19.50
2018-04-30T11:19:41.203Z,19.50
2018-04-30T11:22:07.568Z,19.50
2018-04-30T11:24:34.613Z,19.50
2018-04-30T11:27:01.036Z,19.20
2018-04-30T11:29:27.417Z,19.10
2018-04-30T11:31:53.826Z,18.70
2018-04-30T11:34:20.330Z,18.90
2018-04-30T11:36:46.749Z,19.10
2018-04-30T11:39:13.130Z,19.30
2018-04-30T11:41:39.648Z,19.20
2018-04-30T11:44:06.172Z,19.60
2018-04-30T11:46:32.602Z,19.90
2018-04-30T11:48:59.210Z,19.60
2018-04-30T11:51:25.609Z,19.30
2018-04-30T11:53:52.779Z,19.10
2018-04-30T11:56:19.433Z,19.10
2018-04-30T11:58:45.903Z,19.50
2018-04-30T12:01:13.948Z,19.60
2018-04-30T12:03:40.385Z,19.50
2018-04-30T12:06:07.142Z,19.80
2018-04-30T12:08:33.565Z,20.00
2018-04-30T12:10:59.999Z,20.10
2018-04-30T12:13:27.075Z,20.20
2018-04-30T12:15:53.588Z,20.20
2018-04-30T12:18:20.027Z,20.10
2018-04-30T12:20:48.168Z,20.40
2018-04-30T12:23:14.572Z,20.30
2018-04-30T12:25:41.717Z,20.30
2018-04-30T12:28:08.943Z,20.20
2018-04-30T12:30:35.761Z,20.20
2018-04-30T12:33:02.232Z,20.40
2018-04-30T12:35:28.654Z,20.30
2018-04-30T12:37:55.048Z,20.20
2018-04-30T12:40:21.476Z,20.00
2018-04-30T12:42:47.911Z,20.10
2018-04-30T12:45:14.312Z,19.90
2018-04-30T12:47:41.461Z,20.00
2018-04-30T12:50:08.670Z,20.20
2018-04-30T12:52:35.022Z,20.20
2018-04-30T12:55:01.502Z,20.40
2018-04-30T12:57:27.897Z,20.00
2018-04-30T12:59:54.277Z,20.00
2018-04-30T13:02:20.675Z,20.40
2018-04-30T13:04:47.936Z,20.10
2018-04-30T13:07:14.347Z,20.10
2018-04-30T13:09:41.091Z,20.20
2018-04-30T13:12:08.202Z,20.50
2018-04-30T13:14:34.831Z,20.40
2018-04-30T13:17:01.200Z,20.20
2018-04-30T13:19:27.879Z,20.30
2018-04-30T13:21:54.263Z,20.40
2018-04-30T13:24:20.689Z,20.70
2018-04-30T13:26:47.379Z,21.00
2018-04-30T13:29:14.503Z,21.00
2018-04-30T13:31:41.745Z,20.60
2018-04-30T13:34:08.949Z,20.70
2018-04-30T13:36:35.478Z,20.70
2018-04-30T13:39:03.548Z,20.10
2018-04-30T13:41:29.989Z,20.70
2018-04-30T13:43:57.409Z,21.30
2018-04-30T13:46:24.175Z,22.00
2018-04-30T13:48:50.559Z,22.50
2018-04-30T13:51:17.898Z,22.20
2018-04-30T13:53:44.721Z,22.20
2018-04-30T13:56:11.335Z,21.90
2018-04-30T13:58:38.018Z,21.40
2018-04-30T14:01:05.267Z,21.40
2018-04-30T14:03:31.937Z,21.40
2018-04-30T14:06:01.609Z,20.20
2018-04-30T14:08:29.738Z,21.30
2018-04-30T14:10:57.253Z,21.40
2018-04-30T14:13:24.537Z,21.40
2018-04-30T14:15:51.142Z,21.30
2018-04-30T14:18:17.476Z,21.60
2018-04-30T14:20:43.847Z,22.40
2018-04-30T14:23:11.035Z,23.60
2018-04-30T14:25:37.405Z,23.40
2018-04-30T14:28:03.845Z,23.00
2018-04-30T14:30:30.461Z,23.20
2018-04-30T14:32:56.838Z,23.70
2018-04-30T14:35:24.031Z,23.30
2018-04-30T14:37:50.494Z,23.30
2018-04-30T14:40:17.777Z,22.00
2018-04-30T14:42:44.215Z,20.30
2018-04-30T14:45:10.600Z,21.80
2018-04-30T14:47:37.067Z,21.20
2018-04-30T14:50:04.207Z,19.80
2018-04-30T14:52:31.520Z,19.90
2018-04-30T14:54:57.975Z,19.60
2018-04-30T14:57:24.484Z,19.70
2018-04-30T14:59:50.974Z,20.10
2018-04-30T15:02:18.130Z,20.60
2018-04-30T15:04:44.818Z,20.60
2018-04-30T15:07:11.237Z,20.00
2018-04-30T15:09:37.761Z,19.80
2018-04-30T15:12:04.215Z,19.80
2018-04-30T15:14:30.664Z,19.70
2018-04-30T15:16:57.112Z,20.10
2018-04-30T15:19:23.527Z,20.70
2018-04-30T15:21:49.931Z,21.10
2018-04-30T15:24:16.717Z,20.90
2018-04-30T15:26:43.165Z,20.50
2018-04-30T15:29:10.367Z,19.90
2018-04-30T15:31:36.754Z,19.90
2018-04-30T15:34:03.885Z,20.80
2018-04-30T15:36:30.990Z,21.60
2018-04-30T15:38:57.393Z,21.50
2018-04-30T15:41:23.935Z,21.70
2018-04-30T15:43:50.383Z,21.40
2018-04-30T15:46:16.763Z,20.70
2018-04-30T15:48:43.297Z,20.50
2018-04-30T15:51:09.716Z,20.10
2018-04-30T15:53:36.177Z,19.70
2018-04-30T15:56:03.394Z,19.70
2018-04-30T15:58:30.355Z,19.70
2018-04-30T16:00:57.551Z,19.50
2018-04-30T16:03:23.990Z,19.50
2018-04-30T16:05:50.433Z,19.50
2018-04-30T16:08:16.831Z,19.40
2018-04-30T16:10:43.961Z,19.20
2018-04-30T16:13:11.204Z,20.10
2018-04-30T16:15:37.630Z,20.10
2018-04-30T16:18:04.507Z,19.30
2018-04-30T16:20:31.866Z,22.20
2018-04-30T16:22:59.053Z,22.80
2018-04-30T16:25:25.510Z,22.70
2018-04-30T16:27:51.925Z,22.90
2018-04-30T16:30:18.415Z,22.70
2018-04-30T16:32:45.570Z,21.40
2018-04-30T16:35:12.816Z,21.00
2018-04-30T16:37:39.964Z,20.70
2018-04-30T16:40:07.249Z,20.40
2018-04-30T16:42:33.961Z,20.40
2018-04-30T16:45:01.171Z,19.80
2018-04-30T16:47:27.538Z,19.80
2018-04-30T16:49:54.779Z,19.20
2018-04-30T16:52:21.267Z,19.20
2018-04-30T16:54:47.638Z,18.90
2018-04-30T16:57:14.861Z,18.70
2018-04-30T16:59:41.361Z,18.70
2018-04-30T17:02:07.751Z,18.70
2018-04-30T17:04:35.393Z,18.50
2018-04-30T17:07:01.859Z,18.70
2018-04-30T17:09:28.390Z,18.60
2018-04-30T17:11:55.530Z,18.00
2018-04-30T17:14:21.966Z,18.00
2018-04-30T17:16:48.376Z,17.60
2018-04-30T17:19:14.909Z,17.40
2018-04-30T17:21:41.340Z,17.40
2018-04-30T17:24:07.853Z,18.20
2018-04-30T17:26:34.339Z,18.70
2018-04-30T17:29:01.009Z,18.80
2018-04-30T17:31:27.819Z,19.30
2018-04-30T17:33:54.252Z,19.80
2018-04-30T17:36:20.768Z,19.90
2018-04-30T17:38:47.125Z,20.00
2018-04-30T17:41:14.446Z,19.30
2018-04-30T17:43:40.871Z,19.20
2018-04-30T17:46:07.237Z,18.90
2018-04-30T17:48:34.492Z,18.60
2018-04-30T17:51:00.931Z,18.60
2018-04-30T17:53:28.213Z,18.10
2018-04-30T17:55:54.565Z,18.10
2018-04-30T17:58:20.979Z,18.00
2018-04-30T18:00:47.414Z,17.80
2018-04-30T18:03:14.541Z,17.70
2018-04-30T18:05:41.001Z,17.70
2018-04-30T18:08:08.206Z,17.50
2018-04-30T18:10:35.398Z,17.50
2018-04-30T18:13:01.786Z,17.40
2018-04-30T18:15:28.990Z,17.50
2018-04-30T18:17:55.473Z,17.40
2018-04-30T18:20:22.699Z,17.10
2018-04-30T18:22:49.213Z,17.00
2018-04-30T18:25:15.825Z,16.70
2018-04-30T18:27:42.346Z,16.50
2018-04-30T18:30:09.514Z,16.30
2018-04-30T18:32:35.929Z,16.30
2018-04-30T18:35:03.270Z,16.10
2018-04-30T18:37:30.685Z,16.10
2018-04-30T18:39:57.076Z,16.10
2018-04-30T18:42:23.501Z,16.10
2018-04-30T18:44:49.974Z,16.00
2018-04-30T18:47:16.571Z,13.60
2018-04-30T18:49:43.724Z,15.90
2018-04-30T18:52:11.087Z,15.90
2018-04-30T18:54:37.742Z,15.90
2018-04-30T18:57:04.327Z,15.80
2018-04-30T18:59:31.657Z,15.70
2018-04-30T19:01:58.139Z,15.70
2018-04-30T19:04:25.887Z,15.70
2018-04-30T19:06:53.981Z,15.70
2018-04-30T19:09:20.523Z,15.70
2018-04-30T19:11:46.926Z,15.60
2018-04-30T19:14:14.247Z,15.40
2018-04-30T19:16:40.738Z,15.40
2018-04-30T19:19:07.222Z,15.40
2018-04-30T19:21:33.856Z,15.50
2018-04-30T19:24:00.288Z,15.50
2018-04-30T19:26:27.079Z,15.50
2018-04-30T19:28:53.496Z,15.60
2018-04-30T19:31:20.913Z,15.60
2018-04-30T19:33:47.297Z,15.50
2018-04-30T19:36:13.745Z,15.60
2018-04-30T19:38:40.276Z,15.50
2018-04-30T19:41:06.913Z,15.40
2018-04-30T19:43:33.268Z,15.40
2018-04-30T19:45:59.878Z,15.30
2018-04-30T19:48:27.011Z,15.30
2018-04-30T19:50:54.182Z,15.20
2018-04-30T19:53:20.612Z,15.20
2018-04-30T19:55:47.048Z,15.20
2018-04-30T19:58:14.409Z,15.10
2018-04-30T20:00:40.885Z,15.00
2018-04-30T20:03:07.716Z,15.00
2018-04-30T20:05:34.362Z,15.10
2018-04-30T20:08:00.993Z,15.00
2018-04-30T20:10:27.436Z,14.90
2018-04-30T20:12:53.855Z,14.90
2018-04-30T20:15:20.709Z,14.80
2018-04-30T20:17:47.462Z,14.60
2018-04-30T20:20:15.511Z,14.70
2018-04-30T20:22:42.039Z,14.70
2018-04-30T20:25:08.505Z,14.80
2018-04-30T20:27:35.162Z,14.70
2018-04-30T20:30:02.306Z,14.60
2018-04-30T20:32:28.726Z,14.20
2018-04-30T20:34:55.388Z,14.60
2018-04-30T20:37:22.515Z,14.60
2018-04-30T20:39:48.970Z,14.50
2018-04-30T20:42:16.367Z,14.60
2018-04-30T20:44:42.847Z,14.60
2018-04-30T20:47:10.001Z,14.60
2018-04-30T20:49:38.188Z,14.60
2018-04-30T20:52:05.374Z,14.50
2018-04-30T20:54:31.927Z,14.50
2018-04-30T20:56:58.537Z,15.20
2018-04-30T20:59:24.976Z,14.40
2018-04-30T21:01:51.690Z,14.40
2018-04-30T21:04:19.014Z,14.30
2018-04-30T21:06:46.234Z,14.30
2018-04-30T21:09:13.783Z,14.30
2018-04-30T21:11:40.234Z,14.20
2018-04-30T21:14:07.324Z,14.20
2018-04-30T21:16:34.550Z,14.20
2018-04-30T21:19:02.118Z,14.20
2018-04-30T21:21:30.364Z,14.10
2018-04-30T21:23:56.720Z,14.10
2018-04-30T21:26:23.088Z,14.00
2018-04-30T21:28:50.565Z,14.00
2018-04-30T21:31:17.028Z,13.90
2018-04-30T21:33:43.477Z,14.00
2018-04-30T21:36:10.758Z,14.00
2018-04-30T21:38:38.285Z,14.00
2018-04-30T21:41:05.350Z,14.00
2018-04-30T21:43:33.491Z,13.90
2018-04-30T21:45:59.935Z,13.90
2018-04-30T21:48:27.744Z,13.90
2018-04-30T21:50:56.050Z,13.80
2018-04-30T21:53:24.163Z,13.70
2018-04-30T21:55:52.081Z,13.70
2018-04-30T21:58:20.120Z,13.70
2018-04-30T22:00:48.416Z,13.60
2018-04-30T22:03:14.871Z,13.60
2018-04-30T22:05:41.244Z,13.60
2018-04-30T22:08:08.431Z,13.70
2018-04-30T22:10:34.831Z,13.70
2018-04-30T22:13:01.978Z,13.80
2018-04-30T22:15:29.460Z,13.80
2018-04-30T22:17:55.857Z,13.80
2018-04-30T22:20:22.265Z,13.80
2018-04-30T22:22:48.643Z,13.80
2018-04-30T22:25:15.826Z,13.80
2018-04-30T22:27:42.618Z,13.80
2018-04-30T22:30:09.006Z,13.70
2018-04-30T22:32:35.613Z,13.60
2018-04-30T22:35:02.717Z,13.60
2018-04-30T22:37:29.134Z,13.40
2018-04-30T22:39:55.537Z,13.60
2018-04-30T22:42:21.937Z,13.60
2018-04-30T22:44:48.596Z,13.60
2018-04-30T22:47:15.001Z,13.50
2018-04-30T22:49:42.186Z,13.30
2018-04-30T22:52:08.541Z,13.30
2018-04-30T22:54:34.945Z,13.30
2018-04-30T22:57:05.059Z,13.20
2018-04-30T22:59:32.182Z,13.20
2018-04-30T23:01:58.629Z,13.20
2018-04-30T23:04:25.766Z,13.20
2018-04-30T23:06:52.214Z,13.20
2018-04-30T23:09:19.413Z,13.20
2018-04-30T23:11:45.833Z,13.00
2018-04-30T23:14:12.556Z,13.20
2018-04-30T23:16:39.439Z,13.20
2018-04-30T23:19:05.841Z,13.20
2018-04-30T23:21:32.318Z,13.20
2018-04-30T23:23:58.696Z,13.10
2018-04-30T23:26:25.162Z,13.10
2018-04-30T23:28:51.610Z,13.10
2018-04-30T23:31:18.017Z,13.10
2018-04-30T23:33:44.421Z,13.00
2018-04-30T23:36:11.524Z,13.00
2018-04-30T23:38:37.891Z,13.00
2018-04-30T23:41:05.120Z,12.90
2018-04-30T23:43:31.894Z,12.90
2018-04-30T23:45:59.014Z,12.90
2018-04-30T23:48:25.424Z,12.90
2018-04-30T23:50:51.848Z,12.90
2018-04-30T23:53:18.233Z,12.80
2018-04-30T23:55:45.373Z,12.80
2018-04-30T23:58:11.865Z,12.80
